sensor_id;sensor_type;location;lat;lon;timestamp;P1;durP1;ratioP1;P2;durP2;ratioP2
5650;SDS011;40241;52.684;9.758;2024-01-15T00:00:11;6.60;;;4.80;;
5650;SDS011;40241;52.684;9.758;2024-01-15T00:02:37;8.43;;;4.37;;
5650;SDS011;40241;52.684;9.758;2024-01-15T00:05:02;5.97;;;4.57;;
5650;SDS011;40241;52.684;9.758;2024-01-15T00:07:27;6.23;;;4.67;;
5650;SDS011;40241;52.684;9.758;2024-01-15T00:09:53;7.93;;;4.70;;
5650;SDS011;40241;52.684;9.758;2024-01-15T00:12:18;8.33;;;4.10;;
5650;SDS011;40241;52.684;9.758;2024-01-15T00:14:43;6.47;;;4.43;;
5650;SDS011;40241;52.684;9.758;2024-01-15T00:17:09;8.43;;;3.97;;
5650;SDS011;40241;52.684;9.758;2024-01-15T00:19:34;5.50;;;4.50;;
5650;SDS011;40241;52.684;9.758;2024-01-15T00:21:59;4.20;;;3.07;;
5650;SDS011;40241;52.684;9.758;2024-01-15T00:24:25;7.30;;;4.13;;
5650;SDS011;40241;52.684;9.758;2024-01-15T00:26:50;6.67;;;4.20;;
5650;SDS011;40241;52.684;9.758;2024-01-15T00:29:15;7.07;;;4.00;;
5650;SDS011;40241;52.684;9.758;2024-01-15T00:31:41;9.90;;;3.77;;
5650;SDS011;40241;52.684;9.758;2024-01-15T00:34:06;6.00;;;3.97;;
5650;SDS011;40241;52.684;9.758;2024-01-15T00:36:31;3.97;;;3.50;;
5650;SDS011;40241;52.684;9.758;2024-01-15T00:38:57;6.60;;;3.63;;
5650;SDS011;40241;52.684;9.758;2024-01-15T00:41:22;5.10;;;3.93;;
5650;SDS011;40241;52.684;9.758;2024-01-15T00:43:47;8.47;;;4.00;;
5650;SDS011;40241;52.684;9.758;2024-01-15T00:46:16;6.50;;;3.40;;
5650;SDS011;40241;52.684;9.758;2024-01-15T00:48:41;4.97;;;3.10;;
5650;SDS011;40241;52.684;9.758;2024-01-15T00:51:07;5.80;;;3.10;;
5650;SDS011;40241;52.684;9.758;2024-01-15T00:53:32;4.60;;;3.23;;
5650;SDS011;40241;52.684;9.758;2024-01-15T00:55:58;2.80;;;2.40;;
5650;SDS011;40241;52.684;9.758;2024-01-15T00:58:23;5.27;;;2.63;;
5650;SDS011;40241;52.684;9.758;2024-01-15T01:00:48;2.97;;;2.60;;
5650;SDS011;40241;52.684;9.758;2024-01-15T01:03:13;5.40;;;2.17;;
5650;SDS011;40241;52.684;9.758;2024-01-15T01:05:39;4.93;;;2.17;;
5650;SDS011;40241;52.684;9.758;2024-01-15T01:08:04;4.60;;;1.73;;
5650;SDS011;40241;52.684;9.758;2024-01-15T01:10:30;4.00;;;1.70;;
5650;SDS011;40241;52.684;9.758;2024-01-15T01:12:55;11.37;;;2.03;;
5650;SDS011;40241;52.684;9.758;2024-01-15T01:15:21;4.27;;;1.87;;
5650;SDS011;40241;52.684;9.758;2024-01-15T01:17:46;5.43;;;2.60;;
5650;SDS011;40241;52.684;9.758;2024-01-15T01:20:12;3.77;;;1.80;;
5650;SDS011;40241;52.684;9.758;2024-01-15T01:22:37;3.50;;;1.90;;
5650;SDS011;40241;52.684;9.758;2024-01-15T01:25:04;6.47;;;1.93;;
5650;SDS011;40241;52.684;9.758;2024-01-15T01:27:30;5.57;;;1.90;;
5650;SDS011;40241;52.684;9.758;2024-01-15T01:29:55;4.53;;;1.97;;
5650;SDS011;40241;52.684;9.758;2024-01-15T01:32:20;4.63;;;1.90;;
5650;SDS011;40241;52.684;9.758;2024-01-15T01:34:46;3.77;;;1.73;;
5650;SDS011;40241;52.684;9.758;2024-01-15T01:37:11;4.50;;;1.87;;
5650;SDS011;40241;52.684;9.758;2024-01-15T01:39:40;2.90;;;2.07;;
5650;SDS011;40241;52.684;9.758;2024-01-15T01:42:06;2.20;;;1.60;;
5650;SDS011;40241;52.684;9.758;2024-01-15T01:44:32;3.57;;;2.10;;
5650;SDS011;40241;52.684;9.758;2024-01-15T01:46:58;7.27;;;1.63;;
5650;SDS011;40241;52.684;9.758;2024-01-15T01:49:24;6.83;;;1.97;;
5650;SDS011;40241;52.684;9.758;2024-01-15T01:51:50;2.90;;;1.43;;
5650;SDS011;40241;52.684;9.758;2024-01-15T01:54:16;6.20;;;1.70;;
5650;SDS011;40241;52.684;9.758;2024-01-15T01:56:41;3.90;;;1.40;;
5650;SDS011;40241;52.684;9.758;2024-01-15T01:59:07;1.80;;;1.27;;
5650;SDS011;40241;52.684;9.758;2024-01-15T02:01:36;2.10;;;1.20;;
5650;SDS011;40241;52.684;9.758;2024-01-15T02:04:01;4.23;;;1.70;;
5650;SDS011;40241;52.684;9.758;2024-01-15T02:06:28;3.10;;;1.70;;
5650;SDS011;40241;52.684;9.758;2024-01-15T02:08:53;3.97;;;1.90;;
5650;SDS011;40241;52.684;9.758;2024-01-15T02:11:19;2.50;;;1.50;;
5650;SDS011;40241;52.684;9.758;2024-01-15T02:13:45;7.20;;;1.80;;
5650;SDS011;40241;52.684;9.758;2024-01-15T02:16:10;1.70;;;1.10;;
5650;SDS011;40241;52.684;9.758;2024-01-15T02:18:39;2.67;;;1.30;;
5650;SDS011;40241;52.684;9.758;2024-01-15T02:21:05;3.00;;;1.30;;
5650;SDS011;40241;52.684;9.758;2024-01-15T02:23:31;4.37;;;1.60;;
5650;SDS011;40241;52.684;9.758;2024-01-15T02:25:56;5.10;;;1.37;;
5650;SDS011;40241;52.684;9.758;2024-01-15T02:28:21;4.33;;;1.03;;
5650;SDS011;40241;52.684;9.758;2024-01-15T02:30:47;3.47;;;1.10;;
5650;SDS011;40241;52.684;9.758;2024-01-15T02:33:12;1.07;;;0.80;;
5650;SDS011;40241;52.684;9.758;2024-01-15T02:35:38;7.63;;;1.63;;
5650;SDS011;40241;52.684;9.758;2024-01-15T02:38:04;10.30;;;2.03;;
5650;SDS011;40241;52.684;9.758;2024-01-15T02:40:30;2.60;;;0.90;;
5650;SDS011;40241;52.684;9.758;2024-01-15T02:42:56;8.93;;;1.23;;
5650;SDS011;40241;52.684;9.758;2024-01-15T02:45:21;2.00;;;0.90;;
5650;SDS011;40241;52.684;9.758;2024-01-15T02:47:47;3.07;;;1.23;;
5650;SDS011;40241;52.684;9.758;2024-01-15T02:50:13;3.47;;;0.87;;
5650;SDS011;40241;52.684;9.758;2024-01-15T02:52:39;2.90;;;0.97;;
5650;SDS011;40241;52.684;9.758;2024-01-15T02:55:04;5.50;;;0.90;;
5650;SDS011;40241;52.684;9.758;2024-01-15T02:57:30;3.90;;;1.10;;
5650;SDS011;40241;52.684;9.758;2024-01-15T02:59:55;3.23;;;1.40;;
5650;SDS011;40241;52.684;9.758;2024-01-15T03:02:20;1.17;;;0.80;;
5650;SDS011;40241;52.684;9.758;2024-01-15T03:04:46;5.60;;;1.30;;
5650;SDS011;40241;52.684;9.758;2024-01-15T03:07:11;2.70;;;1.40;;
5650;SDS011;40241;52.684;9.758;2024-01-15T03:09:37;3.90;;;1.03;;
5650;SDS011;40241;52.684;9.758;2024-01-15T03:12:03;2.70;;;1.03;;
5650;SDS011;40241;52.684;9.758;2024-01-15T03:14:29;3.93;;;1.00;;
5650;SDS011;40241;52.684;9.758;2024-01-15T03:16:54;3.97;;;1.07;;
5650;SDS011;40241;52.684;9.758;2024-01-15T03:19:19;4.10;;;0.80;;
5650;SDS011;40241;52.684;9.758;2024-01-15T03:21:45;4.00;;;0.90;;
5650;SDS011;40241;52.684;9.758;2024-01-15T03:24:10;7.20;;;1.13;;
5650;SDS011;40241;52.684;9.758;2024-01-15T03:26:35;2.60;;;0.80;;
5650;SDS011;40241;52.684;9.758;2024-01-15T03:29:01;2.33;;;1.30;;
5650;SDS011;40241;52.684;9.758;2024-01-15T03:31:26;5.87;;;1.57;;
5650;SDS011;40241;52.684;9.758;2024-01-15T03:33:51;6.73;;;1.33;;
5650;SDS011;40241;52.684;9.758;2024-01-15T03:36:17;3.60;;;1.13;;
5650;SDS011;40241;52.684;9.758;2024-01-15T03:38:42;1.77;;;0.80;;
5650;SDS011;40241;52.684;9.758;2024-01-15T03:41:07;1.43;;;0.90;;
5650;SDS011;40241;52.684;9.758;2024-01-15T03:43:33;3.00;;;1.00;;
5650;SDS011;40241;52.684;9.758;2024-01-15T03:45:58;3.40;;;1.13;;
5650;SDS011;40241;52.684;9.758;2024-01-15T03:48:24;4.20;;;0.70;;
5650;SDS011;40241;52.684;9.758;2024-01-15T03:50:49;4.67;;;1.20;;
5650;SDS011;40241;52.684;9.758;2024-01-15T03:53:15;5.67;;;1.60;;
5650;SDS011;40241;52.684;9.758;2024-01-15T03:55:41;9.47;;;0.93;;
5650;SDS011;40241;52.684;9.758;2024-01-15T03:58:07;4.83;;;1.37;;
5650;SDS011;40241;52.684;9.758;2024-01-15T04:00:32;7.90;;;1.40;;
5650;SDS011;40241;52.684;9.758;2024-01-15T04:02:57;4.17;;;1.10;;
5650;SDS011;40241;52.684;9.758;2024-01-15T04:05:22;4.50;;;1.40;;
5650;SDS011;40241;52.684;9.758;2024-01-15T04:07:48;3.80;;;1.20;;
5650;SDS011;40241;52.684;9.758;2024-01-15T04:10:13;5.93;;;1.27;;
5650;SDS011;40241;52.684;9.758;2024-01-15T04:12:38;3.07;;;0.90;;
5650;SDS011;40241;52.684;9.758;2024-01-15T04:15:04;2.23;;;0.80;;
5650;SDS011;40241;52.684;9.758;2024-01-15T04:17:29;2.23;;;0.80;;
5650;SDS011;40241;52.684;9.758;2024-01-15T04:19:55;5.20;;;0.80;;
5650;SDS011;40241;52.684;9.758;2024-01-15T04:22:20;5.73;;;1.23;;
5650;SDS011;40241;52.684;9.758;2024-01-15T04:24:45;3.67;;;1.03;;
5650;SDS011;40241;52.684;9.758;2024-01-15T04:27:11;6.43;;;1.00;;
5650;SDS011;40241;52.684;9.758;2024-01-15T04:29:39;5.90;;;1.50;;
5650;SDS011;40241;52.684;9.758;2024-01-15T04:32:05;4.03;;;0.80;;
5650;SDS011;40241;52.684;9.758;2024-01-15T04:34:30;2.90;;;0.90;;
5650;SDS011;40241;52.684;9.758;2024-01-15T04:36:56;1.73;;;0.80;;
5650;SDS011;40241;52.684;9.758;2024-01-15T04:39:21;3.87;;;0.63;;
5650;SDS011;40241;52.684;9.758;2024-01-15T04:41:47;2.90;;;0.80;;
5650;SDS011;40241;52.684;9.758;2024-01-15T04:44:12;3.63;;;0.93;;
5650;SDS011;40241;52.684;9.758;2024-01-15T04:46:38;4.43;;;0.80;;
5650;SDS011;40241;52.684;9.758;2024-01-15T04:49:03;1.60;;;1.20;;
5650;SDS011;40241;52.684;9.758;2024-01-15T04:51:28;7.30;;;1.10;;
5650;SDS011;40241;52.684;9.758;2024-01-15T04:53:54;2.83;;;0.80;;
5650;SDS011;40241;52.684;9.758;2024-01-15T04:56:19;3.63;;;0.80;;
5650;SDS011;40241;52.684;9.758;2024-01-15T04:58:44;1.70;;;0.73;;
5650;SDS011;40241;52.684;9.758;2024-01-15T05:01:10;1.93;;;0.97;;
5650;SDS011;40241;52.684;9.758;2024-01-15T05:03:35;9.50;;;1.50;;
5650;SDS011;40241;52.684;9.758;2024-01-15T05:06:00;6.23;;;1.20;;
5650;SDS011;40241;52.684;9.758;2024-01-15T05:08:26;3.03;;;1.00;;
5650;SDS011;40241;52.684;9.758;2024-01-15T05:10:51;2.07;;;0.90;;
5650;SDS011;40241;52.684;9.758;2024-01-15T05:13:16;4.63;;;1.57;;
5650;SDS011;40241;52.684;9.758;2024-01-15T05:15:42;3.30;;;0.87;;
5650;SDS011;40241;52.684;9.758;2024-01-15T05:18:07;3.80;;;1.30;;
5650;SDS011;40241;52.684;9.758;2024-01-15T05:20:33;2.37;;;1.13;;
5650;SDS011;40241;52.684;9.758;2024-01-15T05:22:58;15.00;;;2.10;;
5650;SDS011;40241;52.684;9.758;2024-01-15T05:25:23;7.03;;;1.70;;
5650;SDS011;40241;52.684;9.758;2024-01-15T05:27:49;2.70;;;1.10;;
5650;SDS011;40241;52.684;9.758;2024-01-15T05:30:14;6.97;;;1.30;;
5650;SDS011;40241;52.684;9.758;2024-01-15T05:32:40;5.60;;;1.40;;
5650;SDS011;40241;52.684;9.758;2024-01-15T05:35:05;4.93;;;1.33;;
5650;SDS011;40241;52.684;9.758;2024-01-15T05:37:31;1.67;;;1.10;;
5650;SDS011;40241;52.684;9.758;2024-01-15T05:39:56;5.50;;;1.50;;
5650;SDS011;40241;52.684;9.758;2024-01-15T05:42:21;1.87;;;1.00;;
5650;SDS011;40241;52.684;9.758;2024-01-15T05:44:47;1.67;;;1.00;;
5650;SDS011;40241;52.684;9.758;2024-01-15T05:47:12;5.90;;;1.60;;
5650;SDS011;40241;52.684;9.758;2024-01-15T05:49:37;5.33;;;1.20;;
5650;SDS011;40241;52.684;9.758;2024-01-15T05:52:03;4.20;;;1.60;;
5650;SDS011;40241;52.684;9.758;2024-01-15T05:54:29;6.73;;;1.67;;
5650;SDS011;40241;52.684;9.758;2024-01-15T05:56:54;4.63;;;1.40;;
5650;SDS011;40241;52.684;9.758;2024-01-15T05:59:20;1.30;;;1.20;;
5650;SDS011;40241;52.684;9.758;2024-01-15T06:01:45;1.73;;;1.27;;
5650;SDS011;40241;52.684;9.758;2024-01-15T06:04:10;1.30;;;1.20;;
5650;SDS011;40241;52.684;9.758;2024-01-15T06:06:35;3.90;;;2.10;;
5650;SDS011;40241;52.684;9.758;2024-01-15T06:09:01;3.60;;;1.30;;
5650;SDS011;40241;52.684;9.758;2024-01-15T06:11:30;3.03;;;1.53;;
5650;SDS011;40241;52.684;9.758;2024-01-15T06:13:56;1.83;;;1.20;;
5650;SDS011;40241;52.684;9.758;2024-01-15T06:16:21;5.70;;;1.23;;
5650;SDS011;40241;52.684;9.758;2024-01-15T06:18:49;2.80;;;1.30;;
5650;SDS011;40241;52.684;9.758;2024-01-15T06:21:14;2.03;;;1.30;;
5650;SDS011;40241;52.684;9.758;2024-01-15T06:23:40;4.47;;;1.87;;
5650;SDS011;40241;52.684;9.758;2024-01-15T06:26:06;1.27;;;1.03;;
5650;SDS011;40241;52.684;9.758;2024-01-15T06:28:31;2.10;;;1.43;;
5650;SDS011;40241;52.684;9.758;2024-01-15T06:30:57;1.87;;;1.40;;
5650;SDS011;40241;52.684;9.758;2024-01-15T06:33:23;1.40;;;1.30;;
5650;SDS011;40241;52.684;9.758;2024-01-15T06:35:48;3.93;;;1.47;;
5650;SDS011;40241;52.684;9.758;2024-01-15T06:38:14;7.93;;;1.90;;
5650;SDS011;40241;52.684;9.758;2024-01-15T06:40:39;2.77;;;2.00;;
5650;SDS011;40241;52.684;9.758;2024-01-15T06:43:10;4.50;;;2.10;;
5650;SDS011;40241;52.684;9.758;2024-01-15T06:45:39;3.40;;;1.83;;
5650;SDS011;40241;52.684;9.758;2024-01-15T06:48:04;3.13;;;2.03;;
5650;SDS011;40241;52.684;9.758;2024-01-15T06:50:30;2.90;;;1.50;;
5650;SDS011;40241;52.684;9.758;2024-01-15T06:52:55;3.57;;;1.40;;
5650;SDS011;40241;52.684;9.758;2024-01-15T06:55:21;5.43;;;1.77;;
5650;SDS011;40241;52.684;9.758;2024-01-15T06:57:46;3.80;;;1.57;;
5650;SDS011;40241;52.684;9.758;2024-01-15T07:00:12;2.50;;;1.27;;
5650;SDS011;40241;52.684;9.758;2024-01-15T07:02:37;3.43;;;1.40;;
5650;SDS011;40241;52.684;9.758;2024-01-15T07:05:03;4.30;;;1.40;;
5650;SDS011;40241;52.684;9.758;2024-01-15T07:07:30;3.50;;;1.73;;
5650;SDS011;40241;52.684;9.758;2024-01-15T07:09:55;3.63;;;1.20;;
5650;SDS011;40241;52.684;9.758;2024-01-15T07:12:21;3.33;;;1.10;;
5650;SDS011;40241;52.684;9.758;2024-01-15T07:14:46;7.53;;;1.20;;
5650;SDS011;40241;52.684;9.758;2024-01-15T07:17:12;7.57;;;1.47;;
5650;SDS011;40241;52.684;9.758;2024-01-15T07:19:37;2.97;;;1.30;;
5650;SDS011;40241;52.684;9.758;2024-01-15T07:22:02;4.57;;;1.50;;
5650;SDS011;40241;52.684;9.758;2024-01-15T07:24:29;3.37;;;1.30;;
5650;SDS011;40241;52.684;9.758;2024-01-15T07:26:54;4.53;;;1.60;;
5650;SDS011;40241;52.684;9.758;2024-01-15T07:29:20;1.30;;;1.10;;
5650;SDS011;40241;52.684;9.758;2024-01-15T07:31:51;4.97;;;1.57;;
5650;SDS011;40241;52.684;9.758;2024-01-15T07:34:17;2.87;;;1.23;;
5650;SDS011;40241;52.684;9.758;2024-01-15T07:36:46;3.03;;;1.37;;
5650;SDS011;40241;52.684;9.758;2024-01-15T07:39:11;3.93;;;1.67;;
5650;SDS011;40241;52.684;9.758;2024-01-15T07:41:37;2.40;;;1.67;;
5650;SDS011;40241;52.684;9.758;2024-01-15T07:44:02;4.63;;;1.90;;
5650;SDS011;40241;52.684;9.758;2024-01-15T07:46:27;2.60;;;1.53;;
5650;SDS011;40241;52.684;9.758;2024-01-15T07:48:53;3.27;;;1.60;;
5650;SDS011;40241;52.684;9.758;2024-01-15T07:51:24;4.43;;;1.80;;
5650;SDS011;40241;52.684;9.758;2024-01-15T07:53:50;3.70;;;1.43;;
5650;SDS011;40241;52.684;9.758;2024-01-15T07:56:16;1.40;;;1.30;;
5650;SDS011;40241;52.684;9.758;2024-01-15T07:58:41;2.20;;;1.53;;
5650;SDS011;40241;52.684;9.758;2024-01-15T08:01:07;5.47;;;1.60;;
5650;SDS011;40241;52.684;9.758;2024-01-15T08:03:32;2.30;;;1.47;;
5650;SDS011;40241;52.684;9.758;2024-01-15T08:05:58;1.20;;;1.03;;
5650;SDS011;40241;52.684;9.758;2024-01-15T08:08:24;5.20;;;2.40;;
5650;SDS011;40241;52.684;9.758;2024-01-15T08:10:51;2.67;;;2.30;;
5650;SDS011;40241;52.684;9.758;2024-01-15T08:13:17;4.00;;;1.90;;
5650;SDS011;40241;52.684;9.758;2024-01-15T08:15:42;2.07;;;1.87;;
5650;SDS011;40241;52.684;9.758;2024-01-15T08:18:08;5.17;;;1.53;;
5650;SDS011;40241;52.684;9.758;2024-01-15T08:20:34;2.10;;;1.90;;
5650;SDS011;40241;52.684;9.758;2024-01-15T08:22:59;2.90;;;1.60;;
5650;SDS011;40241;52.684;9.758;2024-01-15T08:25:25;1.70;;;1.60;;
5650;SDS011;40241;52.684;9.758;2024-01-15T08:27:51;5.20;;;2.03;;
5650;SDS011;40241;52.684;9.758;2024-01-15T08:30:16;3.33;;;3.00;;
5650;SDS011;40241;52.684;9.758;2024-01-15T08:32:43;5.43;;;3.43;;
5650;SDS011;40241;52.684;9.758;2024-01-15T08:35:10;2.57;;;2.40;;
5650;SDS011;40241;52.684;9.758;2024-01-15T08:37:35;2.60;;;2.40;;
5650;SDS011;40241;52.684;9.758;2024-01-15T08:40:01;2.70;;;2.50;;
5650;SDS011;40241;52.684;9.758;2024-01-15T08:42:26;2.00;;;1.90;;
5650;SDS011;40241;52.684;9.758;2024-01-15T08:44:51;2.83;;;1.90;;
5650;SDS011;40241;52.684;9.758;2024-01-15T08:47:17;2.27;;;1.90;;
5650;SDS011;40241;52.684;9.758;2024-01-15T08:49:42;1.57;;;1.47;;
5650;SDS011;40241;52.684;9.758;2024-01-15T08:52:09;2.23;;;1.50;;
5650;SDS011;40241;52.684;9.758;2024-01-15T08:54:34;2.23;;;1.20;;
5650;SDS011;40241;52.684;9.758;2024-01-15T08:57:00;2.07;;;1.40;;
5650;SDS011;40241;52.684;9.758;2024-01-15T08:59:25;2.80;;;1.30;;
5650;SDS011;40241;52.684;9.758;2024-01-15T09:01:54;2.23;;;1.40;;
5650;SDS011;40241;52.684;9.758;2024-01-15T09:04:22;3.93;;;2.37;;
5650;SDS011;40241;52.684;9.758;2024-01-15T09:06:47;2.47;;;1.60;;
5650;SDS011;40241;52.684;9.758;2024-01-15T09:09:13;3.83;;;1.80;;
5650;SDS011;40241;52.684;9.758;2024-01-15T09:11:41;6.47;;;2.40;;
5650;SDS011;40241;52.684;9.758;2024-01-15T09:14:06;2.50;;;2.30;;
5650;SDS011;40241;52.684;9.758;2024-01-15T09:16:33;3.60;;;2.47;;
5650;SDS011;40241;52.684;9.758;2024-01-15T09:18:58;5.20;;;3.63;;
5650;SDS011;40241;52.684;9.758;2024-01-15T09:21:23;3.03;;;2.57;;
5650;SDS011;40241;52.684;9.758;2024-01-15T09:23:52;5.43;;;2.30;;
5650;SDS011;40241;52.684;9.758;2024-01-15T09:26:17;2.63;;;2.10;;
5650;SDS011;40241;52.684;9.758;2024-01-15T09:28:43;3.10;;;1.60;;
5650;SDS011;40241;52.684;9.758;2024-01-15T09:31:08;3.77;;;1.83;;
5650;SDS011;40241;52.684;9.758;2024-01-15T09:33:33;5.10;;;1.80;;
5650;SDS011;40241;52.684;9.758;2024-01-15T09:36:02;6.77;;;1.47;;
5650;SDS011;40241;52.684;9.758;2024-01-15T09:38:29;2.80;;;1.63;;
5650;SDS011;40241;52.684;9.758;2024-01-15T09:40:55;4.27;;;1.93;;
5650;SDS011;40241;52.684;9.758;2024-01-15T09:43:20;2.30;;;1.50;;
5650;SDS011;40241;52.684;9.758;2024-01-15T09:45:47;2.70;;;1.30;;
5650;SDS011;40241;52.684;9.758;2024-01-15T09:48:14;2.97;;;1.30;;
5650;SDS011;40241;52.684;9.758;2024-01-15T09:50:39;6.23;;;1.50;;
5650;SDS011;40241;52.684;9.758;2024-01-15T09:53:05;4.10;;;1.40;;
5650;SDS011;40241;52.684;9.758;2024-01-15T09:55:30;3.73;;;1.73;;
5650;SDS011;40241;52.684;9.758;2024-01-15T09:57:57;2.60;;;1.60;;
5650;SDS011;40241;52.684;9.758;2024-01-15T10:00:25;4.43;;;2.20;;
5650;SDS011;40241;52.684;9.758;2024-01-15T10:02:52;7.63;;;2.87;;
5650;SDS011;40241;52.684;9.758;2024-01-15T10:05:18;2.23;;;1.63;;
5650;SDS011;40241;52.684;9.758;2024-01-15T10:07:43;2.83;;;1.70;;
5650;SDS011;40241;52.684;9.758;2024-01-15T10:10:10;3.43;;;1.87;;
5650;SDS011;40241;52.684;9.758;2024-01-15T10:12:36;6.13;;;2.30;;
5650;SDS011;40241;52.684;9.758;2024-01-15T10:15:02;4.50;;;1.97;;
5650;SDS011;40241;52.684;9.758;2024-01-15T10:17:29;3.93;;;2.10;;
5650;SDS011;40241;52.684;9.758;2024-01-15T10:19:56;4.37;;;1.77;;
5650;SDS011;40241;52.684;9.758;2024-01-15T10:22:21;3.37;;;1.80;;
5650;SDS011;40241;52.684;9.758;2024-01-15T10:24:47;2.20;;;1.97;;
5650;SDS011;40241;52.684;9.758;2024-01-15T10:27:12;2.30;;;1.50;;
5650;SDS011;40241;52.684;9.758;2024-01-15T10:29:37;2.50;;;1.40;;
5650;SDS011;40241;52.684;9.758;2024-01-15T10:32:05;2.53;;;1.50;;
5650;SDS011;40241;52.684;9.758;2024-01-15T10:34:32;2.87;;;1.60;;
5650;SDS011;40241;52.684;9.758;2024-01-15T10:36:58;1.60;;;1.50;;
5650;SDS011;40241;52.684;9.758;2024-01-15T10:39:23;3.70;;;1.87;;
5650;SDS011;40241;52.684;9.758;2024-01-15T10:41:50;2.17;;;1.40;;
5650;SDS011;40241;52.684;9.758;2024-01-15T10:44:18;3.73;;;1.83;;
5650;SDS011;40241;52.684;9.758;2024-01-15T10:46:44;3.67;;;1.47;;
5650;SDS011;40241;52.684;9.758;2024-01-15T10:49:11;2.40;;;1.43;;
5650;SDS011;40241;52.684;9.758;2024-01-15T10:51:36;4.23;;;1.53;;
5650;SDS011;40241;52.684;9.758;2024-01-15T10:54:02;3.20;;;1.23;;
5650;SDS011;40241;52.684;9.758;2024-01-15T10:56:30;1.43;;;1.20;;
5650;SDS011;40241;52.684;9.758;2024-01-15T10:58:58;1.33;;;1.20;;
5650;SDS011;40241;52.684;9.758;2024-01-15T11:01:24;2.00;;;1.20;;
5650;SDS011;40241;52.684;9.758;2024-01-15T11:03:50;2.77;;;1.70;;
5650;SDS011;40241;52.684;9.758;2024-01-15T11:06:16;5.13;;;1.47;;
5650;SDS011;40241;52.684;9.758;2024-01-15T11:08:44;1.47;;;1.30;;
5650;SDS011;40241;52.684;9.758;2024-01-15T11:11:17;3.57;;;1.20;;
5650;SDS011;40241;52.684;9.758;2024-01-15T11:13:43;2.50;;;1.50;;
5650;SDS011;40241;52.684;9.758;2024-01-15T11:16:11;1.77;;;1.20;;
5650;SDS011;40241;52.684;9.758;2024-01-15T11:18:39;2.33;;;1.90;;
5650;SDS011;40241;52.684;9.758;2024-01-15T11:23:59;3.80;;;1.50;;
5650;SDS011;40241;52.684;9.758;2024-01-15T11:26:43;3.30;;;1.40;;
5650;SDS011;40241;52.684;9.758;2024-01-15T11:29:10;8.63;;;1.20;;
5650;SDS011;40241;52.684;9.758;2024-01-15T11:34:19;4.30;;;1.23;;
5650;SDS011;40241;52.684;9.758;2024-01-15T11:41:51;6.07;;;1.60;;
5650;SDS011;40241;52.684;9.758;2024-01-15T11:44:17;2.53;;;1.00;;
5650;SDS011;40241;52.684;9.758;2024-01-15T11:46:43;5.17;;;1.87;;
5650;SDS011;40241;52.684;9.758;2024-01-15T11:49:42;3.10;;;1.57;;
5650;SDS011;40241;52.684;9.758;2024-01-15T11:52:37;2.77;;;1.53;;
5650;SDS011;40241;52.684;9.758;2024-01-15T11:55:22;3.60;;;1.77;;
5650;SDS011;40241;52.684;9.758;2024-01-15T11:57:55;4.00;;;1.57;;
5650;SDS011;40241;52.684;9.758;2024-01-15T12:00:22;4.13;;;1.70;;
5650;SDS011;40241;52.684;9.758;2024-01-15T12:02:49;3.43;;;1.53;;
5650;SDS011;40241;52.684;9.758;2024-01-15T12:05:16;3.83;;;1.63;;
5650;SDS011;40241;52.684;9.758;2024-01-15T12:07:43;3.80;;;1.47;;
5650;SDS011;40241;52.684;9.758;2024-01-15T12:10:19;3.77;;;1.47;;
5650;SDS011;40241;52.684;9.758;2024-01-15T12:15:25;8.03;;;1.50;;
5650;SDS011;40241;52.684;9.758;2024-01-15T12:17:52;7.00;;;1.80;;
5650;SDS011;40241;52.684;9.758;2024-01-15T12:20:19;5.67;;;1.37;;
5650;SDS011;40241;52.684;9.758;2024-01-15T12:22:45;4.57;;;1.50;;
5650;SDS011;40241;52.684;9.758;2024-01-15T12:25:11;3.70;;;1.60;;
5650;SDS011;40241;52.684;9.758;2024-01-15T12:27:36;2.50;;;1.30;;
5650;SDS011;40241;52.684;9.758;2024-01-15T12:30:02;4.73;;;1.50;;
5650;SDS011;40241;52.684;9.758;2024-01-15T12:32:28;1.87;;;1.60;;
5650;SDS011;40241;52.684;9.758;2024-01-15T12:34:54;2.07;;;1.50;;
5650;SDS011;40241;52.684;9.758;2024-01-15T12:37:19;3.57;;;1.53;;
5650;SDS011;40241;52.684;9.758;2024-01-15T12:39:45;2.60;;;1.57;;
5650;SDS011;40241;52.684;9.758;2024-01-15T12:42:11;5.83;;;1.80;;
5650;SDS011;40241;52.684;9.758;2024-01-15T12:44:36;3.50;;;1.40;;
5650;SDS011;40241;52.684;9.758;2024-01-15T12:47:06;2.23;;;1.77;;
5650;SDS011;40241;52.684;9.758;2024-01-15T12:49:31;5.30;;;1.50;;
5650;SDS011;40241;52.684;9.758;2024-01-15T12:51:57;4.83;;;1.70;;
5650;SDS011;40241;52.684;9.758;2024-01-15T12:54:23;4.53;;;2.00;;
5650;SDS011;40241;52.684;9.758;2024-01-15T12:56:50;2.60;;;1.67;;
5650;SDS011;40241;52.684;9.758;2024-01-15T12:59:16;4.43;;;1.67;;
5650;SDS011;40241;52.684;9.758;2024-01-15T13:01:41;2.23;;;1.40;;
5650;SDS011;40241;52.684;9.758;2024-01-15T13:04:07;3.53;;;1.50;;
5650;SDS011;40241;52.684;9.758;2024-01-15T13:06:35;6.67;;;1.90;;
5650;SDS011;40241;52.684;9.758;2024-01-15T13:09:02;3.63;;;1.63;;
5650;SDS011;40241;52.684;9.758;2024-01-15T13:11:31;3.23;;;1.60;;
5650;SDS011;40241;52.684;9.758;2024-01-15T13:13:56;3.57;;;1.63;;
5650;SDS011;40241;52.684;9.758;2024-01-15T13:16:22;3.10;;;1.90;;
5650;SDS011;40241;52.684;9.758;2024-01-15T13:18:47;4.43;;;1.70;;
5650;SDS011;40241;52.684;9.758;2024-01-15T13:21:14;5.20;;;1.57;;
5650;SDS011;40241;52.684;9.758;2024-01-15T13:23:40;2.47;;;1.70;;
5650;SDS011;40241;52.684;9.758;2024-01-15T13:26:05;5.07;;;2.03;;
5650;SDS011;40241;52.684;9.758;2024-01-15T13:28:30;7.27;;;2.47;;
5650;SDS011;40241;52.684;9.758;2024-01-15T13:30:56;5.63;;;2.03;;
5650;SDS011;40241;52.684;9.758;2024-01-15T13:33:21;12.57;;;3.40;;
5650;SDS011;40241;52.684;9.758;2024-01-15T13:35:47;5.80;;;2.43;;
5650;SDS011;40241;52.684;9.758;2024-01-15T13:38:15;7.43;;;2.50;;
5650;SDS011;40241;52.684;9.758;2024-01-15T13:40:40;4.10;;;2.30;;
5650;SDS011;40241;52.684;9.758;2024-01-15T13:43:05;2.17;;;1.60;;
5650;SDS011;40241;52.684;9.758;2024-01-15T13:45:33;6.77;;;2.47;;
5650;SDS011;40241;52.684;9.758;2024-01-15T13:47:59;2.30;;;2.10;;
5650;SDS011;40241;52.684;9.758;2024-01-15T13:50:24;4.50;;;2.40;;
5650;SDS011;40241;52.684;9.758;2024-01-15T13:52:50;2.73;;;1.73;;
5650;SDS011;40241;52.684;9.758;2024-01-15T13:55:15;5.40;;;2.40;;
5650;SDS011;40241;52.684;9.758;2024-01-15T13:57:40;4.23;;;2.60;;
5650;SDS011;40241;52.684;9.758;2024-01-15T14:00:06;2.77;;;1.77;;
5650;SDS011;40241;52.684;9.758;2024-01-15T14:02:36;4.60;;;1.33;;
5650;SDS011;40241;52.684;9.758;2024-01-15T14:05:01;5.00;;;2.00;;
5650;SDS011;40241;52.684;9.758;2024-01-15T14:07:27;2.43;;;1.80;;
5650;SDS011;40241;52.684;9.758;2024-01-15T14:09:52;6.90;;;1.47;;
5650;SDS011;40241;52.684;9.758;2024-01-15T14:12:17;3.43;;;1.50;;
5650;SDS011;40241;52.684;9.758;2024-01-15T14:14:43;1.83;;;1.50;;
5650;SDS011;40241;52.684;9.758;2024-01-15T14:17:08;3.70;;;1.70;;
5650;SDS011;40241;52.684;9.758;2024-01-15T14:19:33;5.50;;;2.67;;
5650;SDS011;40241;52.684;9.758;2024-01-15T14:21:59;2.60;;;2.40;;
5650;SDS011;40241;52.684;9.758;2024-01-15T14:24:24;4.30;;;2.70;;
5650;SDS011;40241;52.684;9.758;2024-01-15T14:26:49;2.37;;;1.50;;
5650;SDS011;40241;52.684;9.758;2024-01-15T14:29:15;3.57;;;2.50;;
5650;SDS011;40241;52.684;9.758;2024-01-15T14:31:40;3.30;;;2.47;;
5650;SDS011;40241;52.684;9.758;2024-01-15T14:34:05;4.30;;;1.80;;
5650;SDS011;40241;52.684;9.758;2024-01-15T14:36:32;1.77;;;1.60;;
5650;SDS011;40241;52.684;9.758;2024-01-15T14:38:58;6.03;;;2.00;;
5650;SDS011;40241;52.684;9.758;2024-01-15T14:41:23;6.73;;;1.83;;
5650;SDS011;40241;52.684;9.758;2024-01-15T14:43:49;4.77;;;2.10;;
5650;SDS011;40241;52.684;9.758;2024-01-15T14:46:14;3.10;;;1.70;;
5650;SDS011;40241;52.684;9.758;2024-01-15T14:48:40;1.40;;;1.20;;
5650;SDS011;40241;52.684;9.758;2024-01-15T14:51:05;6.23;;;1.60;;
5650;SDS011;40241;52.684;9.758;2024-01-15T14:53:31;1.57;;;1.47;;
5650;SDS011;40241;52.684;9.758;2024-01-15T14:55:57;2.33;;;1.10;;
5650;SDS011;40241;52.684;9.758;2024-01-15T14:58:22;4.57;;;1.60;;
5650;SDS011;40241;52.684;9.758;2024-01-15T15:00:48;1.60;;;1.23;;
5650;SDS011;40241;52.684;9.758;2024-01-15T15:03:13;1.63;;;1.00;;
5650;SDS011;40241;52.684;9.758;2024-01-15T15:05:40;3.40;;;1.50;;